Time;durP1;ratioP1;P1;durP2;ratioP2;P2;SDS_P1;SDS_P2;PMS_P1;PMS_P2;Temp;Humidity;BMP_temperature;BMP_pressure;BME280_temperature;BME280_humidity;BME280_pressure;Samples;Min_cycle;Max_cycle;Signal;HPM_P1;HPM_P2
2022/05/09 00:01:42;;;;;;;2.17;2.07;;;;;;;14.07;83.11;99995.03;5018540;28;20289;-65
2022/05/09 00:04:09;;;;;;;2.57;2.37;;;;;;;14.08;83.12;99995.88;5016401;28;20284;-65
2022/05/09 00:06:36;;;;;;;2.77;2.57;;;;;;;14.09;83.04;99997.53;5021340;28;20289;-65
2022/05/09 00:09:04;;;;;;;3.03;2.83;;;;;;;14.07;83.06;99995.03;5020165;28;20285;-65
2022/05/09 00:11:31;;;;;;;2.87;2.47;;;;;;;13.98;82.94;99987.63;5018561;28;20206;-65
2022/05/09 00:13:59;;;;;;;2.83;2.73;;;;;;;14.04;83.12;99995.13;5020484;28;20670;-65
2022/05/09 00:16:27;;;;;;;2.70;2.60;;;;;;;14.04;83.12;100000.28;5020024;28;20300;-65
2022/05/09 00:18:54;;;;;;;3.00;2.80;;;;;;;14.04;83.54;100002.88;5019745;28;20280;-65
2022/05/09 00:21:21;;;;;;;2.20;2.10;;;;;;;14.04;83.14;100000.28;5016462;28;20197;-65
2022/05/09 00:23:48;;;;;;;4.00;2.63;;;;;;;14.05;83.31;100003.72;5017842;28;20202;-66
2022/05/09 00:26:17;;;;;;;3.37;2.40;;;;;;;14.04;83.18;100005.44;5014990;28;20261;-64
2022/05/09 00:28:44;;;;;;;2.70;2.50;;;;;;;14.04;83.17;100010.59;5025728;28;20554;-65
2022/05/09 00:31:10;;;;;;;2.70;2.40;;;;;;;14.04;82.96;100002.03;5019583;28;20292;-64
2022/05/09 00:33:38;;;;;;;2.53;2.43;;;;;;;14.03;83.01;100002.91;5019840;28;20200;-65
2022/05/09 00:36:05;;;;;;;3.07;2.87;;;;;;;14.04;83.41;100004.59;5011941;28;20210;-65
2022/05/09 00:38:32;;;;;;;2.63;2.53;;;;;;;14.03;83.37;100008.06;5031027;28;20305;-65
2022/05/09 00:43:44;;;;;;;3.17;2.97;;;;;;;13.98;83.36;100002.25;5019478;28;20213;-65
2022/05/09 00:46:11;;;;;;;2.83;2.73;;;;;;;13.96;83.37;100007.44;5014482;28;20198;-65
2022/05/09 00:48:38;;;;;;;3.90;3.60;;;;;;;13.92;83.12;100008.44;5021004;28;20194;-64
2022/05/09 00:51:07;;;;;;;4.40;4.20;;;;;;;13.85;83.07;100013.84;5018820;28;20285;-65
2022/05/09 00:53:37;;;;;;;5.00;4.17;;;;;;;13.79;83.68;100004.59;5017363;28;20225;-65
2022/05/09 00:56:07;;;;;;;3.93;3.73;;;;;;;13.74;83.58;100005.63;5018744;28;20245;-64
2022/05/09 00:58:39;;;;;;;4.80;4.50;;;;;;;13.70;83.48;100001.50;5016079;28;20218;-65
2022/05/09 01:01:10;;;;;;;4.67;4.37;;;;;;;13.61;83.50;100000.03;5008775;28;20202;-65
2022/05/09 01:03:41;;;;;;;4.63;4.33;;;;;;;13.55;84.04;100011.41;5018523;28;20197;-64
2022/05/09 01:06:08;;;;;;;4.40;4.17;;;;;;;13.48;83.89;100015.06;5014283;28;20229;-65
2022/05/09 01:08:36;;;;;;;5.60;5.20;;;;;;;13.37;84.05;100000.84;5017035;28;20288;-64
2022/05/09 01:11:05;;;;;;;5.10;4.80;;;;;;;13.31;83.73;99996.72;5016920;28;20213;-65
2022/05/09 01:13:35;;;;;;;4.83;4.53;;;;;;;13.27;84.18;100005.44;5011815;28;20681;-64
2022/05/09 01:16:05;;;;;;;5.10;4.80;;;;;;;13.18;84.64;100003.16;5010148;28;20206;-65
2022/05/09 01:18:34;;;;;;;4.57;4.37;;;;;;;13.10;84.77;100012.84;5014144;28;20701;-64
2022/05/09 01:21:01;;;;;;;5.03;4.73;;;;;;;12.98;85.25;100002.91;5015069;28;20198;-64
2022/05/09 01:23:34;;;;;;;5.40;4.90;;;;;;;12.96;85.78;100004.66;5020043;28;20293;-64
2022/05/09 01:26:01;;;;;;;5.00;4.57;;;;;;;12.93;85.80;99999.59;5025250;28;20225;-64
2022/05/09 01:28:28;;;;;;;7.73;4.17;;;;;;;12.89;86.00;100010.91;5020658;28;20304;-64
2022/05/09 01:30:59;;;;;;;4.90;4.60;;;;;;;12.88;86.36;100002.34;5016136;28;20642;-64
2022/05/09 01:33:30;;;;;;;5.00;4.50;;;;;;;12.85;86.29;100002.44;5012600;28;20205;-64
2022/05/09 01:36:02;;;;;;;5.27;4.77;;;;;;;12.85;86.25;100006.72;5015719;28;20225;-64
2022/05/09 01:38:34;;;;;;;8.97;4.63;;;;;;;12.81;86.16;100010.28;5017339;28;20538;-65
2022/05/09 01:41:02;;;;;;;4.50;4.20;;;;;;;12.78;86.62;100005.22;5010302;28;20753;-64
2022/05/09 01:43:34;;;;;;;4.43;4.23;;;;;;;12.78;86.63;100005.22;5012422;28;20289;-64
2022/05/09 01:46:01;;;;;;;4.90;4.47;;;;;;;12.73;86.44;100009.66;5017995;28;20209;-64
2022/05/09 01:51:12;;;;;;;4.70;4.23;;;;;;;12.55;86.33;99981.00;5027125;28;20703;-64
2022/05/09 01:53:39;;;;;;;5.17;4.20;;;;;;;12.66;85.74;100008.16;5021838;28;20653;-64
2022/05/09 01:56:08;;;;;;;4.60;4.30;;;;;;;12.63;85.20;100002.19;5015015;28;20224;-64
2022/05/09 01:58:35;;;;;;;4.63;4.37;;;;;;;12.60;84.59;100002.28;5021197;28;20209;-64
2022/05/09 02:01:03;;;;;;;4.97;4.57;;;;;;;12.56;84.83;100010.16;5018407;28;20194;-64
2022/05/09 02:03:30;;;;;;;4.93;4.63;;;;;;;12.52;84.79;100009.38;5022475;28;20210;-64
2022/05/09 02:05:57;;;;;;;5.00;4.70;;;;;;;12.47;85.05;100010.41;5024888;28;20204;-64
2022/05/09 02:08:25;;;;;;;5.07;4.77;;;;;;;12.40;85.22;100007.16;5022797;28;20715;-64
2022/05/09 02:10:52;;;;;;;5.43;5.20;;;;;;;12.37;85.68;100003.84;5020011;28;20586;-64
2022/05/09 02:13:21;;;;;;;4.90;4.60;;;;;;;12.24;86.15;99992.19;5017008;28;20280;-64
2022/05/09 02:15:48;;;;;;;5.90;5.20;;;;;;;12.29;86.82;100005.75;5017976;28;20229;-64
2022/05/09 02:18:15;;;;;;;5.50;5.10;;;;;;;12.22;87.41;100010.22;5021838;28;20698;-64
2022/05/09 02:20:42;;;;;;;5.27;5.07;;;;;;;12.17;87.52;100006.94;5019903;28;20198;-64
2022/05/09 02:23:09;;;;;;;7.63;4.93;;;;;;;12.09;88.21;100008.88;5016975;28;20201;-64
2022/05/09 02:25:36;;;;;;;5.97;5.67;;;;;;;12.11;88.18;100017.41;5020336;28;20581;-64
2022/05/09 02:28:06;;;;;;;5.17;4.77;;;;;;;12.08;88.55;100017.47;5018688;28;20285;-64
2022/05/09 02:30:35;;;;;;;5.77;5.40;;;;;;;11.99;89.20;100017.69;5015044;28;20199;-64
2022/05/09 02:33:02;;;;;;;5.63;5.30;;;;;;;11.95;88.51;100010.97;5025832;28;20207;-64
2022/05/09 02:35:30;;;;;;;5.60;5.30;;;;;;;11.97;89.01;100024.63;5024665;28;20209;-64
2022/05/09 02:37:57;;;;;;;5.80;5.47;;;;;;;11.87;88.98;100018.03;5020354;28;20309;-64
2022/05/09 02:40:25;;;;;;;6.70;6.00;;;;;;;11.90;88.84;100023.06;5007468;28;20733;-64
2022/05/09 02:42:52;;;;;;;5.27;4.97;;;;;;;11.86;89.16;100021.47;5014836;28;20193;-64
2022/05/09 02:45:19;;;;;;;6.40;5.93;;;;;;;11.85;88.88;100024.94;5014491;28;20297;-64
2022/05/09 02:47:48;;;;;;;5.63;5.13;;;;;;;11.78;88.96;100024.25;5021119;28;20197;-65
2022/05/09 02:50:16;;;;;;;6.07;5.73;;;;;;;11.71;89.06;100021.84;5025707;28;20213;-64
2022/05/09 02:52:43;;;;;;;6.37;5.97;;;;;;;11.69;89.68;100026.16;5029339;28;20684;-64
2022/05/09 02:55:12;;;;;;;6.47;5.93;;;;;;;11.58;89.75;100014.44;5015492;28;20230;-64
2022/05/09 02:57:39;;;;;;;6.83;5.47;;;;;;;11.62;90.09;100028.03;5017216;28;20725;-64
2022/05/09 03:00:08;;;;;;;5.83;5.23;;;;;;;11.58;89.95;100022.13;5024191;28;20284;-63
2022/05/09 03:02:36;;;;;;;5.27;4.97;;;;;;;11.59;89.91;100028.97;5022994;28;20210;-64
2022/05/09 03:05:04;;;;;;;5.00;4.73;;;;;;;11.55;90.02;100027.34;5014692;28;20280;-64
2022/05/09 03:07:31;;;;;;;7.20;6.70;;;;;;;11.53;90.82;100034.22;5024336;28;20233;-64
2022/05/09 03:09:58;;;;;;;7.97;7.17;;;;;;;11.51;91.05;100030.00;5018056;28;20209;-64
2022/05/09 03:12:25;;;;;;;6.83;6.23;;;;;;;11.45;91.18;100020.75;5019908;28;20287;-64
2022/05/09 03:14:52;;;;;;;5.80;5.33;;;;;;;11.46;90.93;100027.56;5019633;28;20202;-64
2022/05/09 03:17:19;;;;;;;5.83;5.47;;;;;;;11.39;90.94;100027.75;5023260;28;20288;-64
2022/05/09 03:19:46;;;;;;;6.43;5.93;;;;;;;11.43;90.97;100037.91;5024179;28;20245;-65
2022/05/09 03:22:14;;;;;;;6.97;6.27;;;;;;;11.42;90.55;100038.78;5017265;28;20208;-64
2022/05/09 03:24:41;;;;;;;7.80;6.27;;;;;;;11.40;90.75;100040.56;5006519;28;20579;-64
2022/05/09 03:27:12;;;;;;;7.13;5.13;;;;;;;11.39;90.96;100038.00;5025725;28;20576;-64
2022/05/09 03:29:39;;;;;;;7.07;6.47;;;;;;;11.37;90.70;100038.03;5025802;28;20236;-64
2022/05/09 03:32:07;;;;;;;13.37;7.23;;;;;;;11.40;90.95;100038.00;5028074;28;20197;-64
2022/05/09 03:34:34;;;;;;;7.23;6.70;;;;;;;11.33;90.85;100036.44;5020927;28;20214;-64
2022/05/09 03:37:00;;;;;;;6.67;6.07;;;;;;;11.34;90.98;100050.94;5025509;28;20284;-64
2022/05/09 03:39:29;;;;;;;10.13;6.63;;;;;;;11.33;91.35;100051.84;5013646;28;20776;-64
2022/05/09 03:41:56;;;;;;;8.67;6.33;;;;;;;11.31;91.93;100048.44;5013218;28;20577;-63
2022/05/09 03:44:22;;;;;;;6.40;5.80;;;;;;;11.31;92.25;100053.56;5020584;28;20289;-63
2022/05/09 03:46:49;;;;;;;12.80;6.40;;;;;;;11.33;92.99;100056.97;5018486;28;20288;-64
2022/05/09 03:49:17;;;;;;;8.70;6.67;;;;;;;11.33;94.33;100049.28;5017387;28;20282;-64
2022/05/09 03:51:44;;;;;;;12.87;6.70;;;;;;;11.36;95.16;100051.75;5024810;28;20205;-64
2022/05/09 03:54:11;;;;;;;11.13;6.83;;;;;;;11.35;95.24;100055.19;5013419;28;20225;-63
2022/05/09 03:56:39;;;;;;;6.97;6.37;;;;;;;11.40;95.94;100060.25;5020243;28;20201;-64
2022/05/09 03:59:08;;;;;;;7.67;6.10;;;;;;;11.33;96.25;100041.56;5016520;28;20244;-64
2022/05/09 04:01:35;;;;;;;8.63;6.57;;;;;;;11.54;97.18;100061.59;5026405;28;20255;-64
2022/05/09 04:04:02;;;;;;;6.77;5.63;;;;;;;11.71;96.76;100065.53;5026730;28;20665;-64
2022/05/09 04:06:29;;;;;;;5.90;5.40;;;;;;;11.88;96.35;100060.81;5022326;28;20204;-64
2022/05/09 04:08:56;;;;;;;5.57;4.90;;;;;;;11.99;95.69;100059.66;5026923;28;20228;-64
2022/05/09 04:11:23;;;;;;;6.27;5.77;;;;;;;12.15;95.73;100059.28;5017496;28;20288;-65
2022/05/09 04:13:51;;;;;;;10.10;5.73;;;;;;;12.33;95.00;100064.78;5031610;28;20201;-64
2022/05/09 04:19:02;;;;;;;5.53;5.03;;;;;;;12.70;94.51;100068.94;5018904;28;20769;-64
2022/05/09 04:21:30;;;;;;;6.20;4.73;;;;;;;12.94;93.75;100070.78;5023297;28;20669;-64
2022/05/09 04:23:58;;;;;;;6.23;5.53;;;;;;;13.08;92.67;100061.81;5015816;28;20205;-64
2022/05/09 04:26:25;;;;;;;5.23;4.73;;;;;;;13.38;92.07;100072.91;5022449;28;20205;-64
2022/05/09 04:28:54;;;;;;;8.63;5.10;;;;;;;13.58;90.96;100083.44;5022280;28;20285;-64
2022/05/09 04:31:22;;;;;;;5.00;4.70;;;;;;;13.81;90.77;100074.13;5019023;28;20259;-64
2022/05/09 04:33:49;;;;;;;7.43;5.73;;;;;;;14.06;90.30;100069.84;5020641;28;20233;-64
2022/05/09 04:36:17;;;;;;;4.87;4.47;;;;;;;14.31;89.30;100078.44;5017944;28;20198;-64
2022/05/09 04:38:45;;;;;;;5.10;4.60;;;;;;;14.55;87.60;100069.84;5016846;28;20222;-64
2022/05/09 04:41:13;;;;;;;5.13;4.63;;;;;;;14.82;87.18;100082.66;5023244;28;20586;-65
2022/05/09 04:43:40;;;;;;;5.97;5.30;;;;;;;15.11;85.42;100085.00;5024139;28;20225;-65
2022/05/09 04:46:08;;;;;;;4.80;4.30;;;;;;;15.38;83.85;100077.97;5017514;28;20666;-65
2022/05/09 04:48:35;;;;;;;6.17;4.70;;;;;;;15.50;81.78;100064.59;5016720;28;20289;-65
2022/05/09 04:51:02;;;;;;;5.17;4.87;;;;;;;15.79;80.87;100078.94;5029063;28;20740;-65
2022/05/09 04:53:29;;;;;;;5.73;5.40;;;;;;;15.94;79.68;100081.72;5014126;28;21195;-65
2022/05/09 04:55:57;;;;;;;7.20;5.57;;;;;;;16.10;78.17;100087.94;5021137;28;20320;-65
2022/05/09 04:58:24;;;;;;;5.77;5.47;;;;;;;16.29;77.30;100081.09;5026584;28;20284;-65
2022/05/09 05:00:51;;;;;;;8.10;6.23;;;;;;;16.47;77.46;100079.47;5020719;28;20577;-65
2022/05/09 05:03:20;;;;;;;12.43;6.40;;;;;;;16.59;76.99;100078.97;5016937;28;20232;-65
2022/05/09 05:05:47;;;;;;;6.10;5.60;;;;;;;16.74;75.51;100085.19;5026918;28;20581;-65
2022/05/09 05:08:14;;;;;;;6.93;6.27;;;;;;;16.96;74.90;100090.28;5018583;28;20195;-65
2022/05/09 05:10:42;;;;;;;11.27;7.03;;;;;;;17.10;73.91;100080.09;5017753;28;20212;-65
2022/05/09 05:13:12;;;;;;;5.70;5.13;;;;;;;17.30;74.93;100087.81;5015791;28;20292;-65
2022/05/09 05:15:39;;;;;;;6.97;5.80;;;;;;;17.53;72.19;100090.16;5023090;28;20633;-65
2022/05/09 05:18:06;;;;;;;5.60;5.07;;;;;;;17.73;70.63;100082.31;5021747;28;20214;-65
2022/05/09 05:20:35;;;;;;;5.30;5.00;;;;;;;17.81;69.18;100085.34;5025395;28;20225;-65
2022/05/09 05:23:02;;;;;;;6.27;5.67;;;;;;;17.93;69.11;100080.47;5023317;28;20597;-65
2022/05/09 05:25:31;;;;;;;6.23;5.70;;;;;;;17.91;68.66;100074.50;5021760;28;20205;-64
2022/05/09 05:27:58;;;;;;;6.57;6.10;;;;;;;18.01;67.83;100081.78;5007482;28;20453;-64
2022/05/09 05:30:25;;;;;;;11.93;5.70;;;;;;;18.04;68.08;100085.97;5009693;28;20213;-65
2022/05/09 05:32:55;;;;;;;6.33;5.90;;;;;;;17.73;67.67;100082.31;5018630;28;20670;-64
2022/05/09 05:35:24;;;;;;;5.73;5.27;;;;;;;18.05;67.05;100087.66;5016036;28;20206;-64
2022/05/09 05:37:54;;;;;;;6.60;6.00;;;;;;;17.90;67.44;100088.41;5014861;28;20193;-67
2022/05/09 05:40:21;;;;;;;6.38;5.78;;;;;;;18.08;67.28;100083.16;5014603;28;20455;-62
2022/05/09 05:42:48;;;;;;;6.33;5.87;;;;;;;18.41;65.59;100085.81;5027570;28;20670;-63
2022/05/09 05:45:18;;;;;;;5.80;5.40;;;;;;;18.36;64.18;100087.78;5015192;28;20197;-63
2022/05/09 05:47:46;;;;;;;5.60;5.30;;;;;;;18.48;63.96;100087.13;5022064;28;20213;-62
2022/05/09 05:50:14;;;;;;;5.90;5.40;;;;;;;18.48;62.63;100071.56;5023222;28;20612;-63
2022/05/09 05:52:41;;;;;;;6.43;5.73;;;;;;;18.84;62.45;100084.41;5014322;28;20199;-63
2022/05/09 05:55:10;;;;;;;5.37;4.97;;;;;;;18.91;63.32;100079.72;5015951;28;20233;-65
2022/05/09 05:57:41;;;;;;;7.30;4.87;;;;;;;19.10;63.43;100085.63;5024348;28;20300;-63
2022/05/09 06:00:12;;;;;;;5.30;4.90;;;;;;;19.04;62.93;100096.34;5014513;28;20257;-63
2022/05/09 06:02:39;;;;;;;6.13;5.67;;;;;;;19.15;63.11;100099.22;5025442;28;20208;-62
2022/05/09 06:05:07;;;;;;;5.87;5.20;;;;;;;19.34;62.24;100100.72;5019045;28;20220;-63
2022/05/09 06:07:34;;;;;;;5.07;4.67;;;;;;;19.50;62.64;100097.31;5011845;28;20609;-62
2022/05/09 06:10:01;;;;;;;7.07;6.13;;;;;;;19.64;62.00;100103.44;5012905;28;20194;-62
2022/05/09 06:12:30;;;;;;;5.87;5.57;;;;;;;19.75;61.88;100103.66;5019138;28;20198;-62
2022/05/09 06:17:41;;;;;;;6.50;6.17;;;;;;;20.13;61.69;100095.44;5014159;28;20283;-67
2022/05/09 06:20:12;;;;;;;6.47;5.50;;;;;;;20.16;61.20;100101.25;5008160;28;20733;-63
2022/05/09 06:22:40;;;;;;;5.77;5.20;;;;;;;20.07;60.63;100100.97;5013110;28;20222;-63
2022/05/09 06:25:11;;;;;;;5.33;4.93;;;;;;;20.10;59.49;100090.38;5010523;28;20227;-63
2022/05/09 06:27:40;;;;;;;5.87;5.50;;;;;;;20.20;59.25;100101.94;5009311;28;20211;-63
2022/05/09 06:30:09;;;;;;;6.27;5.87;;;;;;;20.31;58.99;100094.38;5020124;28;20210;-63
2022/05/09 06:32:37;;;;;;;9.20;8.20;;;;;;;20.46;59.28;100093.44;5014330;28;20209;-63
2022/05/09 06:35:06;;;;;;;6.57;6.07;;;;;;;20.78;58.66;100094.94;5021085;28;20674;-62
2022/05/09 06:37:33;;;;;;;5.83;5.43;;;;;;;20.94;57.57;100095.69;5025908;28;20212;-63
2022/05/09 06:40:00;;;;;;;6.07;5.43;;;;;;;20.84;56.90;100097.19;5011539;28;20215;-63
2022/05/09 06:42:28;;;;;;;6.30;5.23;;;;;;;20.80;57.58;100087.06;5014617;28;20728;-63
2022/05/09 06:44:56;;;;;;;5.53;5.23;;;;;;;20.95;57.28;100093.91;5020266;28;20590;-63
2022/05/09 06:47:23;;;;;;;7.20;5.27;;;;;;;21.09;57.92;100091.34;5026243;28;20213;-63
2022/05/09 06:49:50;;;;;;;5.20;4.77;;;;;;;21.31;56.09;100098.66;5020514;28;20214;-63
2022/05/09 06:52:17;;;;;;;5.23;4.97;;;;;;;21.42;55.83;100091.00;5014769;28;20198;-63
2022/05/09 06:54:44;;;;;;;5.67;5.37;;;;;;;21.70;55.12;100098.72;5018999;28;20321;-63
2022/05/09 06:57:11;;;;;;;5.50;4.80;;;;;;;21.48;54.79;100085.38;5014408;28;20637;-62
2022/05/09 06:59:38;;;;;;;5.03;4.73;;;;;;;21.39;55.11;100093.75;5011463;28;20228;-63
2022/05/09 07:02:07;;;;;;;6.07;4.80;;;;;;;21.51;54.70;100079.13;5018269;28;20752;-63
2022/05/09 07:04:34;;;;;;;5.67;5.13;;;;;;;21.89;53.93;100083.56;5021232;28;20295;-63
2022/05/09 07:07:01;;;;;;;5.10;4.40;;;;;;;22.09;53.83;100079.63;5027955;28;20739;-63
2022/05/09 07:09:28;;;;;;;4.93;3.97;;;;;;;22.44;52.60;100083.31;5023350;28;20292;-63
2022/05/09 07:11:55;;;;;;;5.03;4.43;;;;;;;22.71;53.53;100079.78;5011377;28;20296;-63
2022/05/09 07:14:22;;;;;;;5.33;4.90;;;;;;;22.90;52.02;100082.78;5023191;28;20283;-63
2022/05/09 07:16:49;;;;;;;5.30;4.97;;;;;;;22.87;50.91;100080.38;5015574;28;20292;-63
2022/05/09 07:19:17;;;;;;;4.97;4.47;;;;;;;22.64;51.65;100078.50;5027296;28;20221;-63
2022/05/09 07:21:44;;;;;;;5.63;4.40;;;;;;;22.61;50.73;100071.72;5014079;28;20220;-63
2022/05/09 07:24:11;;;;;;;4.77;4.40;;;;;;;22.59;51.23;100073.56;5012778;28;20228;-63
2022/05/09 07:26:39;;;;;;;5.03;4.70;;;;;;;22.71;52.86;100078.00;5028596;28;20715;-63
2022/05/09 07:29:09;;;;;;;4.70;4.30;;;;;;;22.95;51.34;100068.44;5029271;28;20211;-63
2022/05/09 07:31:36;;;;;;;4.33;4.03;;;;;;;23.23;49.46;100076.94;5019776;28;20208;-63
2022/05/09 07:34:02;;;;;;;5.80;5.00;;;;;;;23.37;48.87;100074.16;5016181;28;20293;-63
2022/05/09 07:36:31;;;;;;;4.57;4.27;;;;;;;23.04;49.61;100068.75;5023249;28;20732;-62
2022/05/09 07:38:58;;;;;;;5.87;4.63;;;;;;;22.47;50.68;100061.34;5015942;28;20529;-63
2022/05/09 07:41:25;;;;;;;4.90;4.50;;;;;;;22.58;52.10;100066.69;5019672;28;20307;-63
2022/05/09 07:43:52;;;;;;;4.00;3.73;;;;;;;22.83;51.82;100066.69;5019221;28;20205;-64
2022/05/09 07:46:19;;;;;;;4.87;4.57;;;;;;;22.69;50.53;100066.81;5017122;28;20299;-63
2022/05/09 07:48:47;;;;;;;4.07;3.87;;;;;;;22.31;50.97;100063.34;5013894;28;20206;-64
2022/05/09 07:51:15;;;;;;;4.53;4.13;;;;;;;22.05;52.27;100065.09;5021695;28;20200;-64
2022/05/09 07:53:44;;;;;;;5.80;3.70;;;;;;;22.37;51.05;100048.09;5021281;28;20213;-63
2022/05/09 07:56:10;;;;;;;4.13;3.93;;;;;;;22.69;51.10;100066.81;5015123;28;20324;-63
2022/05/09 07:58:37;;;;;;;4.40;4.10;;;;;;;22.47;52.54;100063.97;5015292;28;20209;-62
2022/05/09 08:01:05;;;;;;;4.33;3.57;;;;;;;22.57;51.61;100067.63;5024333;28;20721;-63
2022/05/09 08:03:34;;;;;;;4.03;3.83;;;;;;;22.82;50.46;100066.78;5029646;28;20692;-63
2022/05/09 08:06:02;;;;;;;3.53;3.33;;;;;;;22.23;52.49;100057.81;5021731;28;20209;-63
2022/05/09 08:08:30;;;;;;;4.30;3.87;;;;;;;22.24;51.41;100064.69;5014981;28;20293;-63
2022/05/09 08:11:00;;;;;;;4.93;4.57;;;;;;;22.25;52.79;100061.16;5023469;28;20730;-63
2022/05/09 08:13:30;;;;;;;4.60;4.13;;;;;;;22.08;51.26;100072.72;5029684;28;20203;-64
2022/05/09 08:15:59;;;;;;;3.70;3.50;;;;;;;22.03;51.48;100060.91;5022581;28;20197;-63
2022/05/09 08:18:26;;;;;;;4.55;4.25;;;;;;;22.24;53.18;100059.47;5012069;28;20442;-66
2022/05/09 08:20:55;;;;;;;4.43;4.07;;;;;;;22.16;52.35;100040.88;5013434;28;20233;-66
2022/05/09 08:23:23;;;;;;;5.53;3.67;;;;;;;22.27;52.00;100056.66;5014930;28;20228;-67
2022/05/09 08:25:51;;;;;;;3.53;3.33;;;;;;;22.91;51.50;100060.91;5013853;28;20529;-64
2022/05/09 08:28:20;;;;;;;3.03;2.83;;;;;;;23.41;49.73;100062.56;5016897;28;20448;-64
2022/05/09 08:30:48;;;;;;;3.37;3.17;;;;;;;23.67;50.19;100056.25;5015045;28;20720;-65
2022/05/09 08:33:17;;;;;;;3.73;3.47;;;;;;;23.88;50.46;100054.66;5010709;28;20206;-65
2022/05/09 08:35:45;;;;;;;4.43;3.87;;;;;;;24.05;50.31;100062.09;5014433;28;20202;-65
2022/05/09 08:38:13;;;;;;;3.30;3.10;;;;;;;23.66;49.65;100064.22;5014340;28;20233;-65
2022/05/09 08:40:48;;;;;;;3.57;3.37;;;;;;;23.68;49.48;100063.19;5019657;28;20336;-64
2022/05/09 08:43:28;;;;;;;4.07;3.77;;;;;;;23.99;49.34;100057.31;5020411;28;20210;-64
2022/05/09 08:46:07;;;;;;;5.37;3.37;;;;;;;23.54;48.63;100063.34;5019048;28;20272;-65
2022/05/09 08:48:50;;;;;;;4.70;3.00;;;;;;;23.66;49.62;100057.19;5018833;28;20208;-64
2022/05/09 08:51:33;;;;;;;2.67;2.57;;;;;;;23.76;48.38;100052.97;5012289;28;20550;-64
2022/05/09 08:54:04;;;;;;;4.93;3.27;;;;;;;23.76;49.32;100047.72;5012425;28;20240;-65
2022/05/09 08:56:32;;;;;;;4.43;4.20;;;;;;;23.62;49.67;100042.66;5017829;28;20221;-64
2022/05/09 08:59:02;;;;;;;3.40;3.10;;;;;;;23.77;48.82;100052.03;5021846;28;20297;-65
2022/05/09 09:01:37;;;;;;;3.00;2.77;;;;;;;23.20;50.13;100051.00;5020395;28;20593;-65
2022/05/09 09:04:07;;;;;;;2.97;2.80;;;;;;;22.39;50.87;100016.66;5016408;28;20808;-64
2022/05/09 09:06:51;;;;;;;2.80;2.60;;;;;;;22.68;51.14;100049.44;5018884;28;20206;-64
2022/05/09 09:09:37;;;;;;;2.70;2.50;;;;;;;22.91;50.57;100051.28;5019048;28;20205;-64
2022/05/09 09:12:29;;;;;;;2.93;2.83;;;;;;;23.12;50.52;100053.31;5020446;28;20209;-66
2022/05/09 09:15:07;;;;;;;3.33;3.13;;;;;;;23.13;50.00;100055.00;5010770;28;20293;-67
2022/05/09 09:17:51;;;;;;;2.80;2.60;;;;;;;23.02;49.74;100038.28;5015591;28;20630;-66
2022/05/09 09:20:21;;;;;;;3.63;3.43;;;;;;;23.40;48.96;100042.56;5014993;28;20624;-66
2022/05/09 09:23:04;;;;;;;4.43;3.07;;;;;;;23.55;49.62;100051.94;5014704;28;20209;-66
2022/05/09 09:25:39;;;;;;;3.37;2.67;;;;;;;23.35;49.09;100045.50;5010454;28;20224;-66
2022/05/09 09:28:12;;;;;;;3.13;2.93;;;;;;;23.16;49.53;100023.38;5013772;28;20665;-64
2022/05/09 09:30:41;;;;;;;3.10;2.90;;;;;;;22.95;49.84;100042.28;5015686;28;20280;-64
2022/05/09 09:33:10;;;;;;;6.40;3.13;;;;;;;22.88;50.68;100033.19;5012196;28;20292;-66
2022/05/09 09:35:48;;;;;;;4.00;3.10;;;;;;;22.89;50.44;100013.97;5010850;28;20206;-64
2022/05/09 09:38:22;;;;;;;2.97;2.87;;;;;;;22.84;52.52;100034.34;5013028;28;20201;-64
2022/05/09 09:40:49;;;;;;;3.30;3.03;;;;;;;22.30;49.80;100027.69;5020325;28;20732;-65
2022/05/09 09:43:16;;;;;;;3.77;3.30;;;;;;;22.28;51.17;100021.75;5020493;28;20200;-63
2022/05/09 09:45:49;;;;;;;3.20;3.00;;;;;;;22.66;53.96;100025.19;5016624;28;20204;-65
2022/05/09 09:48:19;;;;;;;3.17;3.07;;;;;;;22.85;52.30;100015.13;5015031;28;20198;-64
2022/05/09 09:51:01;;;;;;;3.57;3.33;;;;;;;23.09;51.69;100022.16;5017410;28;20583;-64
2022/05/09 09:53:35;;;;;;;3.00;2.90;;;;;;;23.16;50.80;100024.22;5014542;28;20221;-64
2022/05/09 09:56:06;;;;;;;3.17;3.07;;;;;;;23.54;52.65;100018.84;5013221;28;20258;-64
2022/05/09 09:58:34;;;;;;;3.27;3.17;;;;;;;23.55;50.95;99999.59;5012447;28;20688;-64
2022/05/09 10:01:07;;;;;;;3.53;3.43;;;;;;;23.65;51.15;100016.25;5011643;28;20251;-66
2022/05/09 10:03:38;;;;;;;3.03;2.93;;;;;;;23.71;49.19;100000.13;5013976;28;20228;-67
2022/05/09 10:06:14;;;;;;;3.07;2.80;;;;;;;23.81;49.30;100021.22;5011434;28;20336;-65
2022/05/09 10:08:42;;;;;;;3.60;3.30;;;;;;;23.60;49.75;100018.38;5017763;28;20609;-65
2022/05/09 10:11:12;;;;;;;3.03;2.90;;;;;;;23.52;50.58;100018.94;5013899;28;20209;-63
2022/05/09 10:13:43;;;;;;;3.87;3.60;;;;;;;23.72;50.61;100014.84;5015905;28;20284;-63
2022/05/09 10:16:13;;;;;;;3.97;3.67;;;;;;;23.54;50.36;99995.28;5014822;28;20223;-63
2022/05/09 10:18:44;;;;;;;3.50;3.20;;;;;;;23.73;50.34;100006.06;5016168;28;20201;-64
2022/05/09 10:26:55;;;;;;;3.83;3.63;;;;;;;24.29;48.72;100004.41;5012823;28;20228;-64
2022/05/09 10:29:24;;;;;;;3.47;3.27;;;;;;;24.35;48.66;100005.72;5017061;28;20202;-63
2022/05/09 10:31:56;;;;;;;4.17;3.83;;;;;;;23.86;47.54;100009.44;5026960;28;20306;-64
2022/05/09 10:34:27;;;;;;;4.23;3.97;;;;;;;23.96;48.59;99999.94;5021551;28;20202;-67
2022/05/09 10:37:03;;;;;;;3.93;3.73;;;;;;;23.67;47.90;99977.72;5017922;28;20221;-66
2022/05/09 10:39:34;;;;;;;4.33;3.93;;;;;;;24.18;48.18;99995.69;5023589;28;20244;-66
2022/05/09 10:42:07;;;;;;;6.00;3.47;;;;;;;24.31;49.48;99994.63;5011135;28;20224;-66
2022/05/09 10:44:50;;;;;;;3.70;3.40;;;;;;;24.46;48.36;99992.59;5014614;28;20206;-66
2022/05/09 10:47:26;;;;;;;4.23;3.90;;;;;;;24.45;48.73;99996.19;5013954;28;20292;-66
2022/05/09 10:50:03;;;;;;;5.20;3.70;;;;;;;24.62;47.35;99993.06;5018530;28;20205;-67
2022/05/09 10:52:41;;;;;;;3.93;3.63;;;;;;;24.70;48.12;99993.31;5013299;28;20220;-68
2022/05/09 10:55:16;;;;;;;3.13;2.97;;;;;;;24.47;47.05;99986.41;5019709;28;20224;-67
2022/05/09 10:57:50;;;;;;;2.80;2.70;;;;;;;24.52;47.15;99981.66;5013225;28;20214;-66
2022/05/09 11:00:23;;;;;;;3.73;3.33;;;;;;;24.64;45.90;99990.34;5013723;28;20209;-67
2022/05/09 11:03:01;;;;;;;2.70;2.60;;;;;;;24.44;43.86;99994.50;5013968;28;20209;-68
2022/05/09 11:05:40;;;;;;;2.57;2.43;;;;;;;24.47;44.65;99989.03;5013995;28;20210;-66
2022/05/09 11:08:18;;;;;;;2.27;2.17;;;;;;;24.70;44.75;99984.59;5029850;28;20204;-67
2022/05/09 11:10:52;;;;;;;2.57;2.47;;;;;;;24.67;41.52;99984.84;5014538;28;20210;-68
2022/05/09 11:13:27;;;;;;;2.23;2.13;;;;;;;24.79;44.92;99983.88;5012963;28;20666;-66
2022/05/09 11:16:11;;;;;;;2.97;2.30;;;;;;;24.93;42.91;99981.03;5014856;28;20201;-66
2022/05/09 11:19:14;;;;;;;3.10;2.40;;;;;;;25.04;42.14;99973.94;5020374;28;20261;-67
2022/05/09 11:21:49;;;;;;;2.47;2.30;;;;;;;25.21;42.79;99976.97;5013141;28;20598;-68
2022/05/09 11:24:35;;;;;;;6.87;4.00;;;;;;;25.24;42.58;99974.13;5015019;28;20618;-66
2022/05/09 11:27:14;;;;;;;2.90;2.80;;;;;;;25.41;42.53;99974.41;5013236;28;20929;-67
2022/05/09 11:29:58;;;;;;;2.83;2.67;;;;;;;25.48;42.93;99972.13;5013705;28;20673;-67
2022/05/09 11:32:37;;;;;;;2.77;2.57;;;;;;;25.31;45.34;99959.53;5013680;28;20728;-66
2022/05/09 11:35:32;;;;;;;2.63;2.43;;;;;;;25.42;41.07;99962.13;5015353;28;20670;-67
2022/05/09 11:38:29;;;;;;;2.60;2.40;;;;;;;25.48;41.66;99964.25;5013924;28;20213;-67
2022/05/09 11:41:04;;;;;;;2.60;2.43;;;;;;;25.44;43.01;99960.19;5005114;28;20233;-66
2022/05/09 11:43:49;;;;;;;2.07;1.97;;;;;;;25.55;42.33;99957.56;5013932;28;20751;-68
2022/05/09 11:46:34;;;;;;;1.73;1.63;;;;;;;25.45;41.02;99951.38;5013803;28;20213;-68
2022/05/09 11:49:10;;;;;;;2.13;2.03;;;;;;;25.31;41.18;99954.28;5011362;28;20260;-69
2022/05/09 11:51:46;;;;;;;1.77;1.63;;;;;;;25.11;40.77;99952.44;5016490;28;20197;-67
2022/05/09 11:54:18;;;;;;;2.10;2.00;;;;;;;25.00;42.31;99951.56;5019545;28;20273;-67
2022/05/09 11:56:48;;;;;;;2.00;1.90;;;;;;;25.04;42.91;99942.47;5020479;28;20285;-66